Time;durP1;ratioP1;P1;durP2;ratioP2;P2;SDS_P1;SDS_P2;PMS_P1;PMS_P2;Temp;Humidity;BMP_temperature;BMP_pressure;BME280_temperature;BME280_humidity;BME280_pressure;Samples;Min_cycle;Max_cycle;Signal;HPM_P1;HPM_P2
2024/01/28 00:01:57;;;;;;;15.95;3.78;;;1.40;99.90;;;;;;4994972;28;20031;-80
2024/01/28 00:04:23;;;;;;;13.38;3.45;;;1.40;99.90;;;;;;4979848;28;20077;-79
2024/01/28 00:06:49;;;;;;;11.20;3.50;;;1.40;99.90;;;;;;4979310;28;20101;-79
2024/01/28 00:09:15;;;;;;;10.98;3.38;;;1.40;99.90;;;;;;4995089;28;20022;-79
2024/01/28 00:11:42;;;;;;;12.77;3.42;;;1.50;99.90;;;;;;4979582;28;20061;-79
2024/01/28 00:14:08;;;;;;;13.13;3.35;;;1.40;99.90;;;;;;4994856;28;20062;-79
2024/01/28 00:16:34;;;;;;;16.23;3.40;;;1.40;99.90;;;;;;4979757;28;20483;-79
2024/01/28 00:19:04;;;;;;;13.30;3.33;;;1.40;99.90;;;;;;4995317;28;20067;-79
2024/01/28 00:21:30;;;;;;;11.50;3.45;;;1.40;99.90;;;;;;4981320;28;20031;-79
2024/01/28 00:23:56;;;;;;;11.77;3.30;;;1.40;99.90;;;;;;4982583;28;20558;-79
2024/01/28 00:26:21;;;;;;;13.90;3.08;;;1.40;99.90;;;;;;4997620;28;20058;-79
2024/01/28 00:28:47;;;;;;;10.10;3.17;;;1.40;99.90;;;;;;4997218;28;20022;-79
2024/01/28 00:31:13;;;;;;;10.88;3.35;;;1.40;99.90;;;;;;4997828;28;20026;-79
2024/01/28 00:33:39;;;;;;;12.77;3.35;;;1.50;99.90;;;;;;4982937;28;20022;-79
2024/01/28 00:36:08;;;;;;;12.15;3.28;;;1.30;99.90;;;;;;4981354;28;20129;-78
2024/01/28 00:38:34;;;;;;;16.77;3.97;;;1.20;99.90;;;;;;4981305;28;20041;-78
2024/01/28 00:41:00;;;;;;;11.82;3.63;;;1.20;99.90;;;;;;4997561;28;20026;-78
2024/01/28 00:43:26;;;;;;;10.40;2.88;;;1.20;99.90;;;;;;4981582;28;20106;-79
2024/01/28 00:45:52;;;;;;;11.40;2.90;;;1.10;99.90;;;;;;4981610;28;20394;-79
2024/01/28 00:48:18;;;;;;;12.63;2.78;;;1.10;99.90;;;;;;4982817;28;20026;-78
2024/01/28 00:50:44;;;;;;;12.57;3.45;;;1.10;99.90;;;;;;4997623;28;20019;-79
2024/01/28 00:53:10;;;;;;;6.68;2.53;;;1.10;99.90;;;;;;4982431;28;20019;-80
2024/01/28 00:55:36;;;;;;;11.57;3.15;;;1.00;99.90;;;;;;4997218;28;20026;-79
2024/01/28 00:58:04;;;;;;;11.60;3.55;;;;;;;;;;4996992;28;20038;-79
2024/01/28 01:00:31;;;;;;;8.90;3.05;;;1.00;99.90;;;;;;4982387;28;20022;-79
2024/01/28 01:02:56;;;;;;;19.48;3.05;;;1.00;99.90;;;;;;4996918;28;20086;-79
2024/01/28 01:05:22;;;;;;;13.75;4.22;;;1.00;99.90;;;;;;4996944;28;20054;-79
2024/01/28 01:07:47;;;;;;;15.82;3.15;;;1.00;99.90;;;;;;4982550;28;20105;-79
2024/01/28 01:10:14;;;;;;;15.52;3.05;;;1.00;99.90;;;;;;4982370;28;20027;-79
2024/01/28 01:12:40;;;;;;;11.25;3.35;;;0.90;99.90;;;;;;4996573;28;20081;-79
2024/01/28 01:15:06;;;;;;;12.48;4.00;;;0.90;99.90;;;;;;4982269;28;20027;-79
2024/01/28 01:17:32;;;;;;;12.07;3.22;;;0.80;99.90;;;;;;4980693;28;20114;-79
2024/01/28 01:19:57;;;;;;;9.75;3.15;;;0.80;99.90;;;;;;4996344;28;20054;-79
2024/01/28 01:22:23;;;;;;;11.73;3.67;;;0.80;99.90;;;;;;4997271;28;20113;-79
2024/01/28 01:24:49;;;;;;;12.68;3.30;;;0.80;99.90;;;;;;4996984;28;20030;-79
2024/01/28 01:27:15;;;;;;;14.77;4.00;;;0.80;99.90;;;;;;4982437;28;20081;-79
2024/01/28 01:29:40;;;;;;;14.48;3.45;;;0.80;99.90;;;;;;4996921;28;20026;-79
2024/01/28 01:32:06;;;;;;;14.38;3.70;;;0.80;99.90;;;;;;4981944;28;20027;-79
2024/01/28 01:34:31;;;;;;;8.80;3.03;;;0.80;99.90;;;;;;4995894;28;20113;-79
2024/01/28 01:36:57;;;;;;;10.45;3.30;;;0.80;99.90;;;;;;4980124;28;20061;-79
2024/01/28 01:39:22;;;;;;;9.35;2.17;;;0.80;99.90;;;;;;4980136;28;20015;-79
2024/01/28 01:41:48;;;;;;;10.73;2.50;;;1.50;99.90;;;;;;4996535;28;20023;-79
2024/01/28 01:44:14;;;;;;;14.63;3.03;;;0.80;99.90;;;;;;4996474;28;20023;-79
2024/01/28 01:46:42;;;;;;;12.45;3.05;;;0.80;99.90;;;;;;4996316;28;20018;-79
2024/01/28 01:49:09;;;;;;;13.07;3.05;;;0.80;99.90;;;;;;4981511;28;20019;-79
2024/01/28 01:51:34;;;;;;;10.27;3.28;;;0.80;99.90;;;;;;4981262;28;20030;-79
2024/01/28 01:54:02;;;;;;;8.10;2.65;;;0.80;99.90;;;;;;4995877;28;20089;-79
2024/01/28 01:56:30;;;;;;;10.45;2.97;;;0.80;99.90;;;;;;4995694;28;20078;-79
2024/01/28 01:58:57;;;;;;;8.15;2.50;;;0.80;99.90;;;;;;4995735;28;20027;-79
2024/01/28 02:01:26;;;;;;;7.57;2.78;;;0.80;99.90;;;;;;4995528;28;20034;-79
2024/01/28 02:03:54;;;;;;;14.82;3.08;;;0.80;99.90;;;;;;4980796;28;20061;-79
2024/01/28 02:06:20;;;;;;;15.65;3.60;;;0.80;99.90;;;;;;4996344;28;20462;-79
2024/01/28 02:08:45;;;;;;;10.45;2.80;;;1.40;99.90;;;;;;4996363;28;20019;-79
2024/01/28 02:11:11;;;;;;;17.02;3.72;;;0.80;99.90;;;;;;4980476;28;20045;-79
2024/01/28 02:13:38;;;;;;;11.38;3.70;;;0.80;99.90;;;;;;4978877;28;20023;-79
2024/01/28 02:16:04;;;;;;;9.88;2.65;;;0.80;99.90;;;;;;4962504;28;20030;-79
2024/01/28 02:18:29;;;;;;;14.05;3.38;;;0.80;99.90;;;;;;4978912;28;20038;-79
2024/01/28 02:20:55;;;;;;;13.05;3.15;;;0.80;99.90;;;;;;4994821;28;20027;-79
2024/01/28 02:23:21;;;;;;;14.73;3.60;;;0.80;99.90;;;;;;4979515;28;20026;-79
2024/01/28 02:25:47;;;;;;;11.15;3.65;;;0.80;99.90;;;;;;4980541;28;20078;-79
2024/01/28 02:28:13;;;;;;;18.83;3.55;;;0.80;99.90;;;;;;4979467;28;20038;-79
2024/01/28 02:30:38;;;;;;;9.40;3.28;;;0.80;99.90;;;;;;4980457;28;20475;-79
2024/01/28 02:33:04;;;;;;;13.93;3.50;;;0.80;99.90;;;;;;4994962;28;20538;-79
2024/01/28 02:35:30;;;;;;;12.05;3.08;;;0.80;99.90;;;;;;4995434;28;20019;-79
2024/01/28 02:37:56;;;;;;;15.43;3.70;;;0.80;99.90;;;;;;4994957;28;20027;-79
2024/01/28 02:40:21;;;;;;;10.35;3.60;;;0.80;99.90;;;;;;4995264;28;20490;-79
2024/01/28 02:42:47;;;;;;;10.38;3.17;;;0.80;99.90;;;;;;4995742;28;20058;-79
2024/01/28 02:45:13;;;;;;;10.40;3.05;;;0.80;99.90;;;;;;4995501;28;20023;-79
2024/01/28 02:47:38;;;;;;;13.27;3.42;;;0.80;99.90;;;;;;4979880;28;20094;-79
2024/01/28 02:50:04;;;;;;;16.90;3.30;;;0.80;99.90;;;;;;4994374;28;20111;-79
2024/01/28 02:52:30;;;;;;;14.65;3.40;;;0.80;99.90;;;;;;4994545;28;20054;-79
2024/01/28 02:54:56;;;;;;;13.15;3.95;;;0.90;99.90;;;;;;4994843;28;20110;-79
2024/01/28 02:57:21;;;;;;;13.88;3.28;;;0.70;99.90;;;;;;4995509;28;20030;-79
2024/01/28 02:59:47;;;;;;;13.38;3.00;;;0.80;99.90;;;;;;4995179;28;20398;-79
2024/01/28 03:02:14;;;;;;;14.32;3.25;;;0.80;99.90;;;;;;4980257;28;20058;-79
2024/01/28 03:04:40;;;;;;;14.27;3.70;;;0.80;99.90;;;;;;4995411;28;20026;-79
2024/01/28 03:07:08;;;;;;;12.48;3.00;;;0.80;99.90;;;;;;4994152;28;20487;-79
2024/01/28 03:09:34;;;;;;;10.55;4.07;;;0.70;99.90;;;;;;4994591;28;20026;-79
2024/01/28 03:12:00;;;;;;;11.55;3.13;;;0.70;99.90;;;;;;4995749;28;20037;-79
2024/01/28 03:14:26;;;;;;;7.13;3.30;;;0.80;99.90;;;;;;4979597;28;20033;-79
2024/01/28 03:16:52;;;;;;;20.20;4.28;;;0.80;99.90;;;;;;4978403;28;20029;-79
2024/01/28 03:19:18;;;;;;;10.95;3.65;;;;;;;;;;4993905;28;20461;-79
2024/01/28 03:21:44;;;;;;;17.35;4.32;;;;;;;;;;4994650;28;20069;-79
2024/01/28 03:24:10;;;;;;;12.35;3.75;;;0.80;99.90;;;;;;4994097;28;20027;-79
2024/01/28 03:26:35;;;;;;;9.65;3.22;;;0.80;99.90;;;;;;4995683;28;20021;-79
2024/01/28 03:29:03;;;;;;;6.93;2.97;;;0.80;99.90;;;;;;4995380;28;20069;-79
2024/01/28 03:31:29;;;;;;;17.23;3.88;;;;;;;;;;4980589;28;20023;-79
2024/01/28 03:33:54;;;;;;;16.77;4.88;;;0.80;99.90;;;;;;4995891;28;20023;-79
2024/01/28 03:36:20;;;;;;;12.30;3.17;;;0.80;99.90;;;;;;4978623;28;20022;-79
2024/01/28 03:38:45;;;;;;;8.52;2.92;;;0.80;99.90;;;;;;4980809;28;20022;-79
2024/01/28 03:41:13;;;;;;;10.95;3.25;;;0.80;99.90;;;;;;4980076;28;20495;-78
2024/01/28 03:43:39;;;;;;;14.30;4.43;;;0.80;99.90;;;;;;4981945;28;20515;-78
2024/01/28 03:46:07;;;;;;;13.80;3.83;;;0.80;99.90;;;;;;4980074;28;20019;-78
2024/01/28 03:48:32;;;;;;;15.90;3.80;;;0.80;99.90;;;;;;4979538;28;20061;-78
2024/01/28 03:50:58;;;;;;;12.68;2.97;;;0.70;99.90;;;;;;4981185;28;20030;-78
2024/01/28 03:53:23;;;;;;;10.30;3.40;;;0.70;99.90;;;;;;4996054;28;20454;-79
2024/01/28 03:55:49;;;;;;;10.02;2.80;;;0.70;99.90;;;;;;4980838;28;20026;-78
2024/01/28 03:58:15;;;;;;;8.63;2.80;;;0.80;99.90;;;;;;4980555;28;20035;-79
2024/01/28 04:00:41;;;;;;;11.15;3.10;;;0.80;99.90;;;;;;4980196;28;20124;-79
2024/01/28 04:03:06;;;;;;;10.68;2.85;;;0.80;99.90;;;;;;4994421;28;20094;-78
2024/01/28 04:05:32;;;;;;;12.77;3.08;;;0.80;99.90;;;;;;4979087;28;20019;-79
2024/01/28 04:07:58;;;;;;;20.80;3.38;;;0.80;99.90;;;;;;4994546;28;20061;-78
2024/01/28 04:10:24;;;;;;;11.18;2.92;;;0.80;99.90;;;;;;4979482;28;20015;-79
2024/01/28 04:12:50;;;;;;;8.85;3.05;;;3.30;99.90;;;;;;4995589;28;20058;-78
2024/01/28 04:15:15;;;;;;;11.05;2.63;;;0.80;99.90;;;;;;4962445;28;20027;-79
2024/01/28 04:17:41;;;;;;;15.13;3.10;;;0.80;99.90;;;;;;4980389;28;20039;-79
2024/01/28 04:20:08;;;;;;;14.43;3.10;;;0.80;99.90;;;;;;4995191;28;20029;-79
2024/01/28 04:22:34;;;;;;;9.88;2.85;;;0.80;99.90;;;;;;4995745;28;20626;-78
2024/01/28 04:25:00;;;;;;;13.80;3.08;;;0.80;99.90;;;;;;4995114;28;20040;-79
2024/01/28 04:27:26;;;;;;;9.77;3.20;;;0.80;99.90;;;;;;4979271;28;20035;-78
2024/01/28 04:29:51;;;;;;;11.60;2.90;;;0.80;99.90;;;;;;4980307;28;20030;-79
2024/01/28 04:32:17;;;;;;;11.32;3.17;;;0.80;99.90;;;;;;4979516;28;20023;-79
2024/01/28 04:34:43;;;;;;;10.55;3.10;;;0.80;99.90;;;;;;4977634;28;20398;-78
2024/01/28 04:37:08;;;;;;;8.43;2.35;;;0.80;99.90;;;;;;4977617;28;20502;-78
2024/01/28 04:39:35;;;;;;;11.55;3.00;;;0.80;99.90;;;;;;4993753;28;20035;-78
2024/01/28 04:42:03;;;;;;;9.32;3.50;;;0.80;99.90;;;;;;4979656;28;20031;-79
2024/01/28 04:44:29;;;;;;;9.23;2.50;;;0.80;99.90;;;;;;4980099;28;20023;-79
2024/01/28 04:46:57;;;;;;;11.88;2.88;;;0.80;99.90;;;;;;4995188;28;20027;-79
2024/01/28 04:49:23;;;;;;;11.20;2.20;;;0.70;99.90;;;;;;4994789;28;20026;-79
2024/01/28 04:51:50;;;;;;;8.65;2.80;;;0.70;99.90;;;;;;4995583;28;20045;-79
2024/01/28 04:54:16;;;;;;;7.07;2.15;;;;;;;;;;4978080;28;20023;-79
2024/01/28 04:56:42;;;;;;;20.42;2.75;;;0.70;99.90;;;;;;4979646;28;20556;-79
2024/01/28 04:59:08;;;;;;;6.88;2.15;;;0.60;99.90;;;;;;4995087;28;20027;-79
2024/01/28 05:01:34;;;;;;;12.80;2.53;;;0.70;99.90;;;;;;4995303;28;20122;-78
2024/01/28 05:04:01;;;;;;;8.90;2.72;;;0.70;99.90;;;;;;4979754;28;20034;-79
2024/01/28 05:06:34;;;;;;;10.98;2.92;;;0.70;99.90;;;;;;4995659;28;20027;-79
2024/01/28 05:09:03;;;;;;;9.00;2.40;;;0.70;99.90;;;;;;4982652;28;20509;-79
2024/01/28 05:11:29;;;;;;;10.82;2.95;;;1.90;99.90;;;;;;4997826;28;20046;-78
2024/01/28 05:13:54;;;;;;;13.82;3.10;;;1.10;99.90;;;;;;4998475;28;20035;-78
2024/01/28 05:16:20;;;;;;;7.55;2.13;;;0.70;99.90;;;;;;4997606;28;20097;-79
2024/01/28 05:18:46;;;;;;;9.82;2.95;;;0.70;99.90;;;;;;4983789;28;20109;-79
2024/01/28 05:21:11;;;;;;;10.80;2.70;;;0.80;99.90;;;;;;4982848;28;20030;-79
2024/01/28 05:23:37;;;;;;;15.68;2.25;;;0.70;99.90;;;;;;4998479;28;20089;-78
2024/01/28 05:26:03;;;;;;;21.38;2.97;;;0.70;99.90;;;;;;4982951;28;20065;-78
2024/01/28 05:28:28;;;;;;;14.13;3.08;;;0.70;99.90;;;;;;4981257;28;20027;-79
2024/01/28 05:30:54;;;;;;;9.52;2.85;;;0.70;99.90;;;;;;4982637;28;20034;-79
2024/01/28 05:33:20;;;;;;;9.02;2.00;;;0.70;99.90;;;;;;4996971;28;20007;-79
2024/01/28 05:35:45;;;;;;;10.05;2.40;;;0.70;99.90;;;;;;4982616;28;20027;-79
2024/01/28 05:38:12;;;;;;;12.15;3.00;;;0.70;99.90;;;;;;4997608;28;20035;-79
2024/01/28 05:40:38;;;;;;;9.93;2.35;;;0.70;99.90;;;;;;4998629;28;20037;-79
2024/01/28 05:43:03;;;;;;;6.85;2.17;;;0.70;99.90;;;;;;4998458;28;20055;-78
2024/01/28 05:45:29;;;;;;;13.35;2.10;;;0.70;99.90;;;;;;4997529;28;20110;-79
2024/01/28 05:47:57;;;;;;;18.55;2.85;;;0.70;99.90;;;;;;4983580;28;20026;-78
2024/01/28 05:50:23;;;;;;;10.48;2.53;;;0.80;99.90;;;;;;4983399;28;20026;-79
2024/01/28 05:52:49;;;;;;;11.20;2.63;;;0.80;99.90;;;;;;4979544;28;20027;-79
2024/01/28 05:55:15;;;;;;;15.30;2.00;;;0.80;99.90;;;;;;4997244;28;20023;-79
2024/01/28 05:57:40;;;;;;;11.35;2.58;;;0.80;99.90;;;;;;4982245;28;20046;-79
2024/01/28 06:00:07;;;;;;;11.57;2.45;;;0.80;99.90;;;;;;4996654;28;20026;-79
2024/01/28 06:02:33;;;;;;;11.68;2.42;;;;;;;;;;4981812;28;20511;-79
2024/01/28 06:04:58;;;;;;;8.20;2.60;;;0.70;99.90;;;;;;4995919;28;20099;-79
2024/01/28 06:07:24;;;;;;;9.73;2.40;;;0.80;99.90;;;;;;4980595;28;20050;-79
2024/01/28 06:09:49;;;;;;;7.30;1.98;;;0.70;99.90;;;;;;4996762;28;20023;-79
2024/01/28 06:12:15;;;;;;;9.23;2.50;;;0.70;99.90;;;;;;4981986;28;20042;-79
2024/01/28 06:14:41;;;;;;;9.38;2.75;;;0.60;99.90;;;;;;4997637;28;20030;-79
2024/01/28 06:17:07;;;;;;;12.45;2.05;;;0.60;99.90;;;;;;4995323;28;20031;-79
2024/01/28 06:19:32;;;;;;;10.02;2.17;;;2.20;99.90;;;;;;4980891;28;20029;-79
2024/01/28 06:22:02;;;;;;;7.00;2.50;;;0.60;99.90;;;;;;4981141;28;20070;-79
2024/01/28 06:24:31;;;;;;;7.28;2.75;;;0.60;99.90;;;;;;4980918;28;20086;-79
2024/01/28 06:26:57;;;;;;;11.50;2.50;;;0.50;99.90;;;;;;4995498;28;20027;-79
2024/01/28 06:29:26;;;;;;;17.15;3.00;;;0.60;99.90;;;;;;4980930;28;20031;-79
2024/01/28 06:31:51;;;;;;;9.38;3.03;;;0.50;99.90;;;;;;4980831;28;20038;-79
2024/01/28 06:34:18;;;;;;;10.25;2.47;;;0.60;99.90;;;;;;4980830;28;20077;-79
2024/01/28 06:36:43;;;;;;;11.35;2.53;;;0.60;99.90;;;;;;4995811;28;20030;-79
2024/01/28 06:39:09;;;;;;;8.95;3.17;;;0.60;99.90;;;;;;4980705;28;20023;-79
2024/01/28 06:41:37;;;;;;;12.98;2.63;;;0.60;99.90;;;;;;4996574;28;20105;-79
2024/01/28 06:44:03;;;;;;;11.13;3.10;;;0.60;99.90;;;;;;4995490;28;20030;-79
2024/01/28 06:46:28;;;;;;;15.35;3.20;;;0.50;99.90;;;;;;4995305;28;20030;-79
2024/01/28 06:48:54;;;;;;;7.72;2.50;;;0.60;99.90;;;;;;4995182;28;20062;-79
2024/01/28 06:51:20;;;;;;;12.48;2.92;;;0.50;99.90;;;;;;4995572;28;20022;-78
2024/01/28 06:53:47;;;;;;;9.73;2.72;;;2.00;99.90;;;;;;4978962;28;20390;-78
2024/01/28 06:56:13;;;;;;;12.60;3.25;;;0.60;99.90;;;;;;4980319;28;20022;-78
2024/01/28 06:58:39;;;;;;;12.65;2.45;;;;;;;;;;4979384;28;20387;-78
2024/01/28 07:01:09;;;;;;;13.60;2.85;;;0.50;99.90;;;;;;4994864;28;20495;-78
2024/01/28 07:03:36;;;;;;;10.43;3.50;;;0.60;99.90;;;;;;4994985;28;20411;-79
2024/01/28 07:50:05;;;;;;;9.18;2.83;;;0.60;99.90;;;;;;4960809;29;20047;-78
2024/01/28 07:52:32;;;;;;;18.75;3.03;;;0.50;99.90;;;;;;4961691;28;20106;-78
2024/01/28 07:54:58;;;;;;;15.75;4.47;;;;;;;;;;4960322;29;20023;-78
2024/01/28 07:57:23;;;;;;;10.13;2.58;;;0.60;99.90;;;;;;4962657;28;20034;-79
2024/01/28 07:59:49;;;;;;;10.60;3.33;;;0.60;99.90;;;;;;4961213;29;20031;-78
2024/01/28 08:02:15;;;;;;;12.55;3.25;;;0.60;99.90;;;;;;4960271;29;20027;-78
2024/01/28 08:04:42;;;;;;;12.63;3.40;;;0.60;99.90;;;;;;4961043;29;20027;-79
2024/01/28 08:07:08;;;;;;;10.20;4.28;;;0.70;99.90;;;;;;4961821;29;20033;-78
2024/01/28 08:09:34;;;;;;;9.57;3.67;;;0.80;99.90;;;;;;4959739;28;20019;-78
2024/01/28 08:11:59;;;;;;;11.45;3.88;;;0.70;99.90;;;;;;4961760;29;20015;-78
2024/01/28 08:14:27;;;;;;;16.33;2.97;;;0.80;99.90;;;;;;4961147;28;20031;-79
2024/01/28 08:16:54;;;;;;;10.68;2.55;;;0.90;99.90;;;;;;4961450;29;20058;-80
2024/01/28 08:19:20;;;;;;;10.00;3.13;;;1.00;99.90;;;;;;4960831;29;20027;-80
2024/01/28 08:21:45;;;;;;;14.93;3.28;;;1.10;99.90;;;;;;4963601;29;20027;-80
2024/01/28 08:24:11;;;;;;;16.10;2.70;;;1.10;99.90;;;;;;4962535;29;20494;-80
2024/01/28 08:26:37;;;;;;;10.57;2.80;;;1.20;99.90;;;;;;4963457;29;20047;-78
2024/01/28 08:29:03;;;;;;;12.68;3.60;;;1.20;99.90;;;;;;4963086;29;20032;-79
2024/01/28 08:31:29;;;;;;;9.88;2.80;;;1.30;99.90;;;;;;4963370;29;20023;-79
2024/01/28 08:33:54;;;;;;;11.60;2.45;;;1.40;99.90;;;;;;4962531;28;20042;-78
2024/01/28 08:36:20;;;;;;;8.07;2.42;;;1.50;99.90;;;;;;4964096;29;20023;-79
2024/01/28 08:38:46;;;;;;;8.65;2.85;;;;;;;;;;4963771;29;20023;-80
2024/01/28 08:41:12;;;;;;;9.77;2.47;;;;;;;;;;4967671;28;20035;-80
2024/01/28 08:43:38;;;;;;;8.68;2.45;;;1.70;99.90;;;;;;4969128;29;20019;-80
2024/01/28 08:46:04;;;;;;;10.35;2.33;;;1.70;99.90;;;;;;4968660;29;20062;-78
2024/01/28 08:48:30;;;;;;;6.95;2.33;;;1.80;99.90;;;;;;4969431;29;20388;-79
2024/01/28 08:50:56;;;;;;;9.57;2.20;;;1.70;99.90;;;;;;4968447;29;20034;-79
2024/01/28 08:53:22;;;;;;;8.27;2.28;;;;;;;;;;4967950;28;20039;-79
2024/01/28 08:55:48;;;;;;;7.82;2.22;;;2.00;99.90;;;;;;4964323;29;20035;-78
2024/01/28 08:58:14;;;;;;;11.98;2.88;;;;;;;;;;4964630;29;20431;-79
2024/01/28 09:00:40;;;;;;;4.18;2.45;;;2.10;99.90;;;;;;4964366;29;20380;-79
2024/01/28 09:03:05;;;;;;;8.60;2.67;;;2.10;99.90;;;;;;4964126;29;20026;-79
2024/01/28 09:05:31;;;;;;;14.52;2.42;;;2.20;99.90;;;;;;4963462;29;20065;-79
2024/01/28 09:07:57;;;;;;;9.32;2.30;;;2.20;99.90;;;;;;4962338;29;20499;-79
2024/01/28 09:10:23;;;;;;;8.38;2.88;;;2.30;99.90;;;;;;4963329;28;20490;-80
2024/01/28 09:12:49;;;;;;;11.32;3.13;;;2.30;99.90;;;;;;4964007;29;20027;-79
2024/01/28 09:15:17;;;;;;;8.50;2.30;;;2.30;99.90;;;;;;4962979;29;20023;-79
2024/01/28 09:17:43;;;;;;;8.70;2.67;;;2.40;99.90;;;;;;4963150;29;20030;-79
2024/01/28 09:20:09;;;;;;;10.35;3.00;;;2.50;99.90;;;;;;4962370;29;20035;-79
2024/01/28 09:22:36;;;;;;;10.35;2.65;;;2.60;99.90;;;;;;4962694;29;20059;-79
2024/01/28 09:25:03;;;;;;;10.13;3.10;;;2.70;99.90;;;;;;4964402;29;20027;-79
2024/01/28 09:27:29;;;;;;;7.20;2.15;;;2.70;99.90;;;;;;4962562;29;20090;-79
2024/01/28 09:29:55;;;;;;;16.25;3.47;;;2.80;99.90;;;;;;4962159;29;20059;-79
2024/01/28 09:32:21;;;;;;;10.45;2.40;;;2.80;99.90;;;;;;4962987;29;20061;-79
2024/01/28 09:34:47;;;;;;;8.10;2.08;;;2.80;99.90;;;;;;4961180;29;20093;-79
2024/01/28 09:37:13;;;;;;;10.77;2.65;;;2.90;99.90;;;;;;4962929;29;20023;-79
2024/01/28 09:39:38;;;;;;;10.90;2.72;;;3.00;99.90;;;;;;4961641;29;20027;-80
2024/01/28 09:42:23;;;;;;;9.75;2.35;;;3.00;99.90;;;;;;4961223;29;20614;-79
2024/01/28 09:44:50;;;;;;;6.47;2.25;;;;;;;;;;4959961;29;20035;-78
2024/01/28 09:47:18;;;;;;;9.48;2.17;;;3.20;99.90;;;;;;4960889;29;20038;-78
2024/01/28 09:49:44;;;;;;;9.65;2.97;;;3.30;99.90;;;;;;4960034;29;20027;-78
2024/01/28 09:52:11;;;;;;;8.65;2.72;;;4.40;99.90;;;;;;4959653;28;20483;-78
2024/01/28 09:54:37;;;;;;;9.13;3.00;;;3.40;99.90;;;;;;4959997;29;20023;-79
2024/01/28 09:57:05;;;;;;;7.13;2.28;;;3.50;99.90;;;;;;4961349;29;20055;-78
2024/01/28 09:59:33;;;;;;;10.75;3.05;;;3.60;99.90;;;;;;4959708;29;20582;-77
2024/01/28 10:02:02;;;;;;;6.05;1.38;;;3.70;99.90;;;;;;4962275;29;20032;-78
2024/01/28 10:04:29;;;;;;;11.38;2.20;;;3.70;99.90;;;;;;4962259;29;20038;-78
2024/01/28 10:06:57;;;;;;;8.40;3.17;;;3.80;99.90;;;;;;4960665;29;20051;-78
2024/01/28 10:09:26;;;;;;;9.10;2.50;;;3.80;99.90;;;;;;4962514;29;20026;-78
2024/01/28 10:11:52;;;;;;;6.18;1.85;;;3.90;99.90;;;;;;4959867;29;20122;-78
2024/01/28 10:14:18;;;;;;;9.35;2.33;;;4.50;99.90;;;;;;4959278;29;20079;-77
2024/01/28 10:16:48;;;;;;;6.70;2.33;;;4.10;99.90;;;;;;4960344;29;20031;-78
2024/01/28 10:19:14;;;;;;;7.40;2.10;;;4.10;99.90;;;;;;4960897;29;20051;-78
2024/01/28 10:21:41;;;;;;;5.97;2.28;;;4.10;99.90;;;;;;4960491;29;20059;-78
2024/01/28 10:24:11;;;;;;;11.38;2.50;;;6.70;99.90;;;;;;4961139;29;20364;-78
2024/01/28 10:26:37;;;;;;;6.40;2.72;;;4.30;99.90;;;;;;4961437;29;20120;-78
2024/01/28 10:29:03;;;;;;;5.13;1.65;;;4.40;99.90;;;;;;4960590;29;20027;-78
2024/01/28 10:31:30;;;;;;;5.03;1.85;;;4.50;99.90;;;;;;4961212;29;20019;-78
2024/01/28 10:33:56;;;;;;;7.55;2.15;;;4.60;99.90;;;;;;4959197;29;20551;-78
2024/01/28 10:36:21;;;;;;;4.53;1.73;;;4.70;99.90;;;;;;4960930;29;20098;-78
2024/01/28 10:38:48;;;;;;;9.95;2.08;;;4.70;99.90;;;;;;4958964;29;20031;-78
2024/01/28 10:41:18;;;;;;;5.50;1.60;;;4.80;99.90;;;;;;4958779;29;20041;-78
2024/01/28 10:43:54;;;;;;;7.75;2.08;;;5.00;99.90;;;;;;4958234;28;20399;-78
2024/01/28 10:46:25;;;;;;;7.43;2.53;;;5.10;99.90;;;;;;4957233;29;20058;-78
2024/01/28 10:48:53;;;;;;;5.35;1.88;;;5.10;99.90;;;;;;4957279;29;20035;-78
2024/01/28 10:51:20;;;;;;;5.30;1.98;;;5.20;99.90;;;;;;4958729;29;20027;-78
2024/01/28 10:53:46;;;;;;;9.52;2.22;;;5.30;99.90;;;;;;4958971;29;20031;-78
2024/01/28 10:56:13;;;;;;;11.25;1.90;;;5.40;99.90;;;;;;4957863;28;20544;-78
2024/01/28 10:58:39;;;;;;;4.85;1.70;;;5.50;99.90;;;;;;4958797;28;20035;-78
2024/01/28 11:01:07;;;;;;;4.90;1.38;;;5.50;99.90;;;;;;4959937;29;20027;-78
2024/01/28 11:03:34;;;;;;;4.40;1.50;;;5.60;99.90;;;;;;4958488;28;20023;-78
2024/01/28 11:06:00;;;;;;;4.30;1.73;;;5.80;99.90;;;;;;4960281;29;20027;-78
2024/01/28 11:08:27;;;;;;;8.05;2.63;;;5.70;99.90;;;;;;4960214;29;20024;-78
2024/01/28 11:10:53;;;;;;;5.53;1.83;;;5.90;99.90;;;;;;4960684;29;20027;-78
2024/01/28 11:13:18;;;;;;;10.80;1.35;;;5.90;99.90;;;;;;4960819;29;20155;-79
2024/01/28 11:15:45;;;;;;;8.98;2.13;;;6.00;99.90;;;;;;4960731;29;20058;-78
2024/01/28 11:18:11;;;;;;;4.95;1.40;;;6.10;99.90;;;;;;4958138;29;20097;-77
2024/01/28 11:20:37;;;;;;;8.95;1.98;;;6.10;99.90;;;;;;4962202;29;20027;-80
2024/01/28 11:23:04;;;;;;;6.68;1.23;;;6.30;99.90;;;;;;4963831;28;20114;-78
2024/01/28 11:25:30;;;;;;;4.93;0.90;;;6.30;99.90;;;;;;4962817;29;20027;-78
2024/01/28 11:28:01;;;;;;;5.65;1.45;;;6.40;99.90;;;;;;4959326;29;20022;-78
2024/01/28 11:30:28;;;;;;;5.20;1.20;;;6.40;99.90;;;;;;4960141;29;20034;-78
2024/01/28 11:33:09;;;;;;;5.85;1.15;;;6.50;99.90;;;;;;4963860;29;20021;-79
2024/01/28 11:35:34;;;;;;;5.03;0.88;;;6.70;99.90;;;;;;4962167;29;20054;-78
2024/01/28 11:38:06;;;;;;;4.45;1.27;;;6.70;99.90;;;;;;4964682;29;20550;-78
2024/01/28 11:40:37;;;;;;;4.22;0.98;;;6.70;99.90;;;;;;4967852;29;20027;-78
2024/01/28 11:43:08;;;;;;;3.72;0.90;;;7.00;99.90;;;;;;4966558;29;20027;-80
2024/01/28 11:45:37;;;;;;;7.35;1.13;;;7.10;99.90;;;;;;4961378;29;20046;-78
2024/01/28 11:48:10;;;;;;;4.07;0.88;;;7.10;99.90;;;;;;4958877;29;20023;-79
2024/01/28 11:50:36;;;;;;;3.20;1.27;;;7.40;99.90;;;;;;4963311;29;20026;-79
2024/01/28 11:53:05;;;;;;;3.92;0.93;;;7.40;99.90;;;;;;4966849;29;20023;-78
2024/01/28 11:55:31;;;;;;;2.58;0.55;;;7.50;99.90;;;;;;4965256;29;20495;-78
2024/01/28 11:57:58;;;;;;;4.45;0.85;;;7.70;99.90;;;;;;4959802;28;20019;-79
2024/01/28 12:00:25;;;;;;;5.20;0.95;;;7.70;99.90;;;;;;4964281;29;20447;-78
2024/01/28 12:02:51;;;;;;;3.90;1.13;;;7.80;99.90;;;;;;4966328;28;20020;-79
2024/01/28 12:05:17;;;;;;;5.28;0.93;;;8.70;99.90;;;;;;4967550;29;20399;-78
2024/01/28 12:07:42;;;;;;;3.63;1.15;;;7.90;99.90;;;;;;4968195;29;20494;-78
2024/01/28 12:10:12;;;;;;;3.10;0.60;;;8.20;99.90;;;;;;4968934;29;20023;-78
2024/01/28 12:12:42;;;;;;;1.67;0.68;;;8.20;99.90;;;;;;4969950;28;20380;-78
2024/01/28 12:15:09;;;;;;;5.68;0.98;;;8.40;99.90;;;;;;4967998;29;20058;-78
2024/01/28 12:17:35;;;;;;;4.78;1.00;;;8.50;99.90;;;;;;4967870;28;20026;-78
2024/01/28 12:20:03;;;;;;;3.97;1.33;;;8.60;99.90;;;;;;4969921;29;20026;-78
2024/01/28 12:22:35;;;;;;;5.90;0.77;;;8.60;99.90;;;;;;4968682;29;20031;-78
2024/01/28 12:25:10;;;;;;;2.83;0.40;;;8.80;99.90;;;;;;4969210;29;20034;-78
2024/01/28 12:27:36;;;;;;;8.40;1.23;;;8.90;99.90;;;;;;4970020;29;20024;-79
2024/01/28 12:30:02;;;;;;;3.45;0.70;;;9.10;99.90;;;;;;4966275;29;20019;-79
2024/01/28 12:32:29;;;;;;;4.93;1.13;;;9.10;99.90;;;;;;4968900;29;20035;-79
2024/01/28 12:34:56;;;;;;;3.97;1.02;;;9.30;99.90;;;;;;4969438;29;20024;-79
2024/01/28 12:37:24;;;;;;;4.70;0.65;;;9.40;99.90;;;;;;4970179;29;20431;-79
2024/01/28 12:39:50;;;;;;;2.93;0.50;;;9.50;99.90;;;;;;4969413;29;20057;-79
2024/01/28 12:42:18;;;;;;;3.15;0.70;;;9.70;99.90;;;;;;4969706;29;20030;-79
2024/01/28 12:44:44;;;;;;;2.47;0.47;;;9.70;99.90;;;;;;4970460;29;20031;-79
2024/01/28 12:47:10;;;;;;;2.80;0.98;;;9.80;99.90;;;;;;4969108;29;20027;-79
2024/01/28 12:49:36;;;;;;;3.42;0.60;;;9.90;99.90;;;;;;4969094;29;20037;-79
2024/01/28 12:52:01;;;;;;;2.22;0.60;;;9.90;99.90;;;;;;4969658;29;20054;-79
2024/01/28 12:54:27;;;;;;;0.93;0.45;;;10.00;99.90;;;;;;4963169;29;20039;-83
2024/01/28 12:56:53;;;;;;;3.30;0.82;;;10.00;99.90;;;;;;4959929;29;20030;-83
2024/01/28 12:59:19;;;;;;;3.85;0.45;;;;;;;;;;4959433;29;20031;-84
2024/01/28 13:01:45;;;;;;;2.85;0.80;;;10.20;99.90;;;;;;4957378;29;20031;-84
2024/01/28 13:04:12;;;;;;;5.85;0.68;;;10.20;99.90;;;;;;4958086;29;20107;-84
2024/01/28 13:06:39;;;;;;;3.28;0.98;;;10.30;99.90;;;;;;4959290;29;20482;-82
2024/01/28 13:09:09;;;;;;;3.15;0.52;;;10.40;99.90;;;;;;4958027;29;20031;-84
2024/01/28 13:11:37;;;;;;;3.05;0.50;;;10.30;99.90;;;;;;4957365;29;20030;-84
2024/01/28 13:14:03;;;;;;;4.63;1.13;;;10.40;99.90;;;;;;4959016;29;20517;-83
2024/01/28 13:16:30;;;;;;;8.00;0.77;;;10.50;99.90;;;;;;4958663;29;20027;-84
2024/01/28 13:18:55;;;;;;;7.72;1.75;;;10.60;99.90;;;;;;4959941;29;20158;-84
2024/01/28 13:21:22;;;;;;;3.38;0.95;;;;;;;;;;4958861;29;20090;-84
2024/01/28 13:23:48;;;;;;;2.92;0.98;;;;;;;;;;4960562;28;20023;-83
2024/01/28 13:26:13;;;;;;;2.88;0.50;;;10.80;99.90;;;;;;4959586;28;20031;-84
2024/01/28 13:28:40;;;;;;;1.88;0.77;;;10.70;99.90;;;;;;4961943;29;20051;-84
2024/01/28 13:31:06;;;;;;;3.72;0.60;;;;;;;;;;4964479;29;20028;-85
2024/01/28 13:33:32;;;;;;;4.18;0.80;;;10.80;99.90;;;;;;4963218;28;20027;-84
2024/01/28 13:35:58;;;;;;;4.18;0.90;;;10.70;99.90;;;;;;4963225;29;20032;-84